sensor_id;sensor_type;location;lat;lon;timestamp;P1;durP1;ratioP1;P2;durP2;ratioP2
59294;SDS011;45067;44.654;20.200;2022-12-22T00:00:58;92.50;;;50.00;;
59294;SDS011;45067;44.654;20.200;2022-12-22T00:03:42;95.45;;;52.08;;
59294;SDS011;45067;44.654;20.200;2022-12-22T00:06:27;96.38;;;52.45;;
59294;SDS011;45067;44.654;20.200;2022-12-22T00:09:11;86.75;;;48.63;;
59294;SDS011;45067;44.654;20.200;2022-12-22T00:11:56;93.35;;;50.55;;
59294;SDS011;45067;44.654;20.200;2022-12-22T00:14:41;91.95;;;49.15;;
59294;SDS011;45067;44.654;20.200;2022-12-22T00:17:27;87.20;;;48.15;;
59294;SDS011;45067;44.654;20.200;2022-12-22T00:20:16;95.75;;;50.60;;
59294;SDS011;45067;44.654;20.200;2022-12-22T00:26:04;76.88;;;42.47;;
59294;SDS011;45067;44.654;20.200;2022-12-22T00:28:51;76.78;;;42.45;;
59294;SDS011;45067;44.654;20.200;2022-12-22T00:31:35;73.22;;;39.70;;
59294;SDS011;45067;44.654;20.200;2022-12-22T00:34:20;68.45;;;37.20;;
59294;SDS011;45067;44.654;20.200;2022-12-22T00:37:09;70.68;;;38.28;;
59294;SDS011;45067;44.654;20.200;2022-12-22T00:42:57;66.80;;;38.17;;
59294;SDS011;45067;44.654;20.200;2022-12-22T00:45:41;70.25;;;37.70;;
59294;SDS011;45067;44.654;20.200;2022-12-22T00:48:26;74.25;;;39.20;;
59294;SDS011;45067;44.654;20.200;2022-12-22T00:51:11;74.07;;;39.65;;
59294;SDS011;45067;44.654;20.200;2022-12-22T00:53:56;82.10;;;42.60;;
59294;SDS011;45067;44.654;20.200;2022-12-22T00:56:41;85.55;;;45.47;;
59294;SDS011;45067;44.654;20.200;2022-12-22T00:59:26;89.57;;;45.22;;
59294;SDS011;45067;44.654;20.200;2022-12-22T01:02:11;90.13;;;46.25;;
59294;SDS011;45067;44.654;20.200;2022-12-22T01:04:56;82.47;;;45.05;;
59294;SDS011;45067;44.654;20.200;2022-12-22T01:07:40;80.47;;;43.72;;
59294;SDS011;45067;44.654;20.200;2022-12-22T01:10:25;80.43;;;44.25;;
59294;SDS011;45067;44.654;20.200;2022-12-22T01:13:11;74.90;;;41.05;;
59294;SDS011;45067;44.654;20.200;2022-12-22T01:15:56;77.88;;;43.03;;
59294;SDS011;45067;44.654;20.200;2022-12-22T01:18:40;68.68;;;36.75;;
59294;SDS011;45067;44.654;20.200;2022-12-22T01:21:25;69.55;;;38.08;;
59294;SDS011;45067;44.654;20.200;2022-12-22T01:27:14;59.72;;;34.00;;
59294;SDS011;45067;44.654;20.200;2022-12-22T01:29:59;62.70;;;36.08;;
59294;SDS011;45067;44.654;20.200;2022-12-22T01:32:43;58.75;;;32.28;;
59294;SDS011;45067;44.654;20.200;2022-12-22T01:35:30;52.70;;;29.38;;
59294;SDS011;45067;44.654;20.200;2022-12-22T01:38:16;57.03;;;30.77;;
59294;SDS011;45067;44.654;20.200;2022-12-22T01:41:01;55.72;;;29.75;;
59294;SDS011;45067;44.654;20.200;2022-12-22T01:43:46;54.65;;;28.55;;
59294;SDS011;45067;44.654;20.200;2022-12-22T01:46:32;54.60;;;29.35;;
59294;SDS011;45067;44.654;20.200;2022-12-22T01:49:18;48.08;;;28.40;;
59294;SDS011;45067;44.654;20.200;2022-12-22T01:52:04;47.47;;;27.80;;
59294;SDS011;45067;44.654;20.200;2022-12-22T01:54:49;51.78;;;28.25;;
59294;SDS011;45067;44.654;20.200;2022-12-22T01:57:35;51.03;;;27.58;;
59294;SDS011;45067;44.654;20.200;2022-12-22T02:00:20;55.00;;;30.60;;
59294;SDS011;45067;44.654;20.200;2022-12-22T02:03:18;52.70;;;29.38;;
59294;SDS011;45067;44.654;20.200;2022-12-22T02:12:17;54.33;;;30.92;;
59294;SDS011;45067;44.654;20.200;2022-12-22T02:15:11;55.47;;;31.80;;
59294;SDS011;45067;44.654;20.200;2022-12-22T02:20:42;57.50;;;31.77;;
59294;SDS011;45067;44.654;20.200;2022-12-22T02:23:44;56.90;;;32.47;;
59294;SDS011;45067;44.654;20.200;2022-12-22T02:26:35;58.20;;;33.00;;
59294;SDS011;45067;44.654;20.200;2022-12-22T02:29:27;59.10;;;33.60;;
59294;SDS011;45067;44.654;20.200;2022-12-22T02:32:12;58.72;;;31.85;;
59294;SDS011;45067;44.654;20.200;2022-12-22T02:35:01;60.70;;;34.13;;
59294;SDS011;45067;44.654;20.200;2022-12-22T02:37:57;56.58;;;33.63;;
59294;SDS011;45067;44.654;20.200;2022-12-22T02:46:32;62.03;;;34.30;;
59294;SDS011;45067;44.654;20.200;2022-12-22T02:49:21;63.88;;;35.17;;
59294;SDS011;45067;44.654;20.200;2022-12-22T02:52:18;63.72;;;34.38;;
59294;SDS011;45067;44.654;20.200;2022-12-22T02:58:10;65.60;;;36.17;;
59294;SDS011;45067;44.654;20.200;2022-12-22T03:00:55;64.85;;;36.10;;
59294;SDS011;45067;44.654;20.200;2022-12-22T03:03:40;61.50;;;35.95;;
59294;SDS011;45067;44.654;20.200;2022-12-22T03:06:24;64.00;;;36.70;;
59294;SDS011;45067;44.654;20.200;2022-12-22T03:09:09;64.40;;;37.25;;
59294;SDS011;45067;44.654;20.200;2022-12-22T03:11:54;66.72;;;37.15;;
59294;SDS011;45067;44.654;20.200;2022-12-22T03:14:38;69.13;;;36.67;;
59294;SDS011;45067;44.654;20.200;2022-12-22T03:17:23;67.00;;;38.35;;
59294;SDS011;45067;44.654;20.200;2022-12-22T03:20:08;65.00;;;36.30;;
59294;SDS011;45067;44.654;20.200;2022-12-22T03:22:53;65.28;;;36.97;;
59294;SDS011;45067;44.654;20.200;2022-12-22T03:25:37;63.47;;;36.17;;
59294;SDS011;45067;44.654;20.200;2022-12-22T03:28:19;59.85;;;35.78;;
59294;SDS011;45067;44.654;20.200;2022-12-22T03:30:51;59.17;;;36.13;;
59294;SDS011;45067;44.654;20.200;2022-12-22T03:33:17;60.58;;;35.22;;
59294;SDS011;45067;44.654;20.200;2022-12-22T03:35:43;65.07;;;37.83;;
59294;SDS011;45067;44.654;20.200;2022-12-22T03:38:09;67.25;;;37.70;;
59294;SDS011;45067;44.654;20.200;2022-12-22T03:40:35;60.72;;;35.72;;
59294;SDS011;45067;44.654;20.200;2022-12-22T03:43:01;61.00;;;35.38;;
59294;SDS011;45067;44.654;20.200;2022-12-22T03:45:46;61.47;;;35.42;;
59294;SDS011;45067;44.654;20.200;2022-12-22T03:48:30;58.58;;;33.78;;
59294;SDS011;45067;44.654;20.200;2022-12-22T03:50:56;58.17;;;33.58;;
59294;SDS011;45067;44.654;20.200;2022-12-22T03:56:26;63.92;;;35.40;;
59294;SDS011;45067;44.654;20.200;2022-12-22T03:58:52;61.90;;;34.70;;
59294;SDS011;45067;44.654;20.200;2022-12-22T04:01:19;61.75;;;34.67;;
59294;SDS011;45067;44.654;20.200;2022-12-22T04:03:45;58.58;;;33.80;;
59294;SDS011;45067;44.654;20.200;2022-12-22T04:06:11;61.13;;;33.30;;
59294;SDS011;45067;44.654;20.200;2022-12-22T04:11:40;55.38;;;33.40;;
59294;SDS011;45067;44.654;20.200;2022-12-22T04:14:28;62.20;;;35.30;;
59294;SDS011;45067;44.654;20.200;2022-12-22T04:16:54;60.65;;;35.28;;
59294;SDS011;45067;44.654;20.200;2022-12-22T04:19:20;61.80;;;35.55;;
59294;SDS011;45067;44.654;20.200;2022-12-22T04:21:46;58.72;;;34.95;;
59294;SDS011;45067;44.654;20.200;2022-12-22T04:27:15;58.70;;;34.10;;
59294;SDS011;45067;44.654;20.200;2022-12-22T04:29:41;62.22;;;33.75;;
59294;SDS011;45067;44.654;20.200;2022-12-22T04:32:07;61.13;;;34.40;;
59294;SDS011;45067;44.654;20.200;2022-12-22T04:34:33;59.88;;;34.75;;
59294;SDS011;45067;44.654;20.200;2022-12-22T04:36:59;61.15;;;35.75;;
59294;SDS011;45067;44.654;20.200;2022-12-22T04:42:29;67.32;;;37.75;;
59294;SDS011;45067;44.654;20.200;2022-12-22T04:44:55;64.15;;;38.80;;
59294;SDS011;45067;44.654;20.200;2022-12-22T04:47:21;60.30;;;36.90;;
59294;SDS011;45067;44.654;20.200;2022-12-22T04:49:47;64.80;;;36.92;;
59294;SDS011;45067;44.654;20.200;2022-12-22T04:52:13;62.70;;;37.58;;
59294;SDS011;45067;44.654;20.200;2022-12-22T04:57:43;64.85;;;38.45;;
59294;SDS011;45067;44.654;20.200;2022-12-22T05:00:09;70.20;;;38.97;;
59294;SDS011;45067;44.654;20.200;2022-12-22T05:02:35;70.28;;;41.05;;
59294;SDS011;45067;44.654;20.200;2022-12-22T05:05:01;75.78;;;42.30;;
59294;SDS011;45067;44.654;20.200;2022-12-22T05:07:27;70.05;;;41.05;;
59294;SDS011;45067;44.654;20.200;2022-12-22T05:12:56;70.88;;;41.03;;
59294;SDS011;45067;44.654;20.200;2022-12-22T05:15:26;65.68;;;39.88;;
59294;SDS011;45067;44.654;20.200;2022-12-22T05:17:53;74.40;;;41.35;;
59294;SDS011;45067;44.654;20.200;2022-12-22T05:20:20;71.28;;;41.47;;
59294;SDS011;45067;44.654;20.200;2022-12-22T05:22:46;77.90;;;46.22;;
59294;SDS011;45067;44.654;20.200;2022-12-22T05:28:16;74.93;;;44.75;;
59294;SDS011;45067;44.654;20.200;2022-12-22T05:30:42;78.63;;;47.13;;
59294;SDS011;45067;44.654;20.200;2022-12-22T05:33:08;73.47;;;42.75;;
59294;SDS011;45067;44.654;20.200;2022-12-22T05:35:34;75.30;;;43.95;;
59294;SDS011;45067;44.654;20.200;2022-12-22T05:38:00;75.47;;;44.85;;
59294;SDS011;45067;44.654;20.200;2022-12-22T05:43:30;76.18;;;46.47;;
59294;SDS011;45067;44.654;20.200;2022-12-22T05:45:59;79.55;;;46.50;;
59294;SDS011;45067;44.654;20.200;2022-12-22T05:48:28;82.90;;;47.92;;
59294;SDS011;45067;44.654;20.200;2022-12-22T05:50:54;91.03;;;54.40;;
59294;SDS011;45067;44.654;20.200;2022-12-22T05:53:20;87.13;;;54.88;;
59294;SDS011;45067;44.654;20.200;2022-12-22T05:58:50;97.57;;;53.65;;
59294;SDS011;45067;44.654;20.200;2022-12-22T06:01:23;101.22;;;56.58;;
59294;SDS011;45067;44.654;20.200;2022-12-22T06:03:49;90.22;;;53.95;;
59294;SDS011;45067;44.654;20.200;2022-12-22T06:06:20;108.55;;;56.55;;
59294;SDS011;45067;44.654;20.200;2022-12-22T06:08:46;92.50;;;58.00;;
59294;SDS011;45067;44.654;20.200;2022-12-22T06:11:12;90.25;;;54.40;;
59294;SDS011;45067;44.654;20.200;2022-12-22T06:13:44;94.10;;;57.70;;
59294;SDS011;45067;44.654;20.200;2022-12-22T06:16:10;94.35;;;58.72;;
59294;SDS011;45067;44.654;20.200;2022-12-22T06:18:36;96.97;;;57.97;;
59294;SDS011;45067;44.654;20.200;2022-12-22T06:21:02;95.65;;;57.83;;
59294;SDS011;45067;44.654;20.200;2022-12-22T06:23:28;96.45;;;59.20;;
59294;SDS011;45067;44.654;20.200;2022-12-22T06:28:32;99.63;;;58.80;;
59294;SDS011;45067;44.654;20.200;2022-12-22T06:30:58;97.40;;;59.53;;
59294;SDS011;45067;44.654;20.200;2022-12-22T06:33:24;105.72;;;59.10;;
59294;SDS011;45067;44.654;20.200;2022-12-22T06:35:50;99.13;;;61.22;;
59294;SDS011;45067;44.654;20.200;2022-12-22T06:38:16;101.85;;;60.55;;
59294;SDS011;45067;44.654;20.200;2022-12-22T06:40:42;100.18;;;60.13;;
59294;SDS011;45067;44.654;20.200;2022-12-22T06:43:08;95.82;;;58.83;;
59294;SDS011;45067;44.654;20.200;2022-12-22T06:45:35;103.10;;;62.08;;
59294;SDS011;45067;44.654;20.200;2022-12-22T06:48:02;103.75;;;61.47;;
59294;SDS011;45067;44.654;20.200;2022-12-22T06:50:28;102.07;;;63.15;;
59294;SDS011;45067;44.654;20.200;2022-12-22T06:52:54;105.15;;;60.63;;
59294;SDS011;45067;44.654;20.200;2022-12-22T06:55:20;139.95;;;76.35;;
59294;SDS011;45067;44.654;20.200;2022-12-22T06:57:46;149.68;;;87.03;;
59294;SDS011;45067;44.654;20.200;2022-12-22T07:00:12;158.82;;;89.22;;
59294;SDS011;45067;44.654;20.200;2022-12-22T07:02:48;138.98;;;78.57;;
59294;SDS011;45067;44.654;20.200;2022-12-22T07:05:14;154.15;;;84.75;;
59294;SDS011;45067;44.654;20.200;2022-12-22T07:07:41;164.40;;;88.20;;
59294;SDS011;45067;44.654;20.200;2022-12-22T07:10:07;145.85;;;78.78;;
59294;SDS011;45067;44.654;20.200;2022-12-22T07:12:33;141.98;;;78.35;;
59294;SDS011;45067;44.654;20.200;2022-12-22T07:15:00;145.77;;;74.72;;
59294;SDS011;45067;44.654;20.200;2022-12-22T07:17:26;124.82;;;71.38;;
59294;SDS011;45067;44.654;20.200;2022-12-22T07:19:52;128.57;;;72.95;;
59294;SDS011;45067;44.654;20.200;2022-12-22T07:22:18;116.22;;;69.28;;
59294;SDS011;45067;44.654;20.200;2022-12-22T07:24:44;129.15;;;70.68;;
59294;SDS011;45067;44.654;20.200;2022-12-22T07:27:10;113.10;;;66.13;;
59294;SDS011;45067;44.654;20.200;2022-12-22T07:29:36;108.82;;;62.08;;
59294;SDS011;45067;44.654;20.200;2022-12-22T07:32:04;112.68;;;66.57;;
59294;SDS011;45067;44.654;20.200;2022-12-22T07:34:30;108.95;;;63.65;;
59294;SDS011;45067;44.654;20.200;2022-12-22T07:36:56;111.28;;;66.13;;
59294;SDS011;45067;44.654;20.200;2022-12-22T07:39:22;112.95;;;67.93;;
59294;SDS011;45067;44.654;20.200;2022-12-22T07:41:48;114.93;;;64.57;;
59294;SDS011;45067;44.654;20.200;2022-12-22T07:44:33;129.65;;;71.45;;
59294;SDS011;45067;44.654;20.200;2022-12-22T07:46:59;117.30;;;65.30;;
59294;SDS011;45067;44.654;20.200;2022-12-22T07:49:25;116.28;;;67.95;;
59294;SDS011;45067;44.654;20.200;2022-12-22T07:52:10;111.15;;;65.85;;
59294;SDS011;45067;44.654;20.200;2022-12-22T07:54:36;126.60;;;77.53;;
59294;SDS011;45067;44.654;20.200;2022-12-22T07:57:02;145.43;;;80.00;;
59294;SDS011;45067;44.654;20.200;2022-12-22T07:59:28;133.27;;;78.07;;
59294;SDS011;45067;44.654;20.200;2022-12-22T08:01:54;151.98;;;81.80;;
59294;SDS011;45067;44.654;20.200;2022-12-22T08:04:20;178.98;;;90.22;;
59294;SDS011;45067;44.654;20.200;2022-12-22T08:06:46;182.48;;;89.30;;
59294;SDS011;45067;44.654;20.200;2022-12-22T08:09:13;159.00;;;86.70;;
59294;SDS011;45067;44.654;20.200;2022-12-22T08:11:39;160.00;;;87.55;;
59294;SDS011;45067;44.654;20.200;2022-12-22T08:14:06;159.02;;;84.13;;
59294;SDS011;45067;44.654;20.200;2022-12-22T08:16:32;151.93;;;84.75;;
59294;SDS011;45067;44.654;20.200;2022-12-22T08:18:58;149.93;;;83.90;;
59294;SDS011;45067;44.654;20.200;2022-12-22T08:21:24;146.68;;;82.07;;
59294;SDS011;45067;44.654;20.200;2022-12-22T08:23:50;144.80;;;81.78;;
59294;SDS011;45067;44.654;20.200;2022-12-22T08:26:17;132.57;;;79.38;;
59294;SDS011;45067;44.654;20.200;2022-12-22T08:28:48;137.68;;;78.88;;
59294;SDS011;45067;44.654;20.200;2022-12-22T08:31:15;135.07;;;81.45;;
59294;SDS011;45067;44.654;20.200;2022-12-22T08:33:41;139.18;;;78.95;;
59294;SDS011;45067;44.654;20.200;2022-12-22T08:36:08;117.88;;;72.00;;
59294;SDS011;45067;44.654;20.200;2022-12-22T08:38:35;114.90;;;68.25;;
59294;SDS011;45067;44.654;20.200;2022-12-22T08:41:01;109.57;;;65.40;;
59294;SDS011;45067;44.654;20.200;2022-12-22T08:43:28;176.98;;;99.28;;
59294;SDS011;45067;44.654;20.200;2022-12-22T08:45:55;228.48;;;125.95;;
59294;SDS011;45067;44.654;20.200;2022-12-22T08:48:21;248.55;;;131.13;;
59294;SDS011;45067;44.654;20.200;2022-12-22T08:50:47;219.13;;;122.07;;
59294;SDS011;45067;44.654;20.200;2022-12-22T08:53:13;190.95;;;107.70;;
59294;SDS011;45067;44.654;20.200;2022-12-22T08:55:40;155.57;;;92.13;;
59294;SDS011;45067;44.654;20.200;2022-12-22T08:58:06;134.95;;;76.18;;
59294;SDS011;45067;44.654;20.200;2022-12-22T09:00:32;125.88;;;74.85;;
59294;SDS011;45067;44.654;20.200;2022-12-22T09:02:59;111.95;;;69.03;;
59294;SDS011;45067;44.654;20.200;2022-12-22T09:05:25;119.75;;;71.82;;
59294;SDS011;45067;44.654;20.200;2022-12-22T09:07:51;115.35;;;68.45;;
59294;SDS011;45067;44.654;20.200;2022-12-22T09:10:17;115.93;;;66.95;;
59294;SDS011;45067;44.654;20.200;2022-12-22T09:12:43;114.25;;;68.65;;
59294;SDS011;45067;44.654;20.200;2022-12-22T09:15:11;116.82;;;68.32;;
59294;SDS011;45067;44.654;20.200;2022-12-22T09:17:38;140.35;;;81.80;;
59294;SDS011;45067;44.654;20.200;2022-12-22T09:20:06;152.93;;;87.28;;
59294;SDS011;45067;44.654;20.200;2022-12-22T09:22:35;136.93;;;81.13;;
59294;SDS011;45067;44.654;20.200;2022-12-22T09:25:02;115.53;;;67.88;;
59294;SDS011;45067;44.654;20.200;2022-12-22T09:27:28;102.00;;;61.30;;
59294;SDS011;45067;44.654;20.200;2022-12-22T09:29:54;101.88;;;61.75;;
59294;SDS011;45067;44.654;20.200;2022-12-22T09:32:21;107.28;;;65.90;;
59294;SDS011;45067;44.654;20.200;2022-12-22T09:34:47;96.97;;;62.00;;
59294;SDS011;45067;44.654;20.200;2022-12-22T09:37:13;99.05;;;60.90;;
59294;SDS011;45067;44.654;20.200;2022-12-22T09:39:39;107.38;;;66.53;;
59294;SDS011;45067;44.654;20.200;2022-12-22T09:42:09;105.55;;;65.07;;
59294;SDS011;45067;44.654;20.200;2022-12-22T09:44:37;110.50;;;67.53;;
59294;SDS011;45067;44.654;20.200;2022-12-22T09:50:04;130.07;;;75.55;;
59294;SDS011;45067;44.654;20.200;2022-12-22T09:55:00;138.07;;;83.45;;
59294;SDS011;45067;44.654;20.200;2022-12-22T09:57:30;130.55;;;77.70;;
59294;SDS011;45067;44.654;20.200;2022-12-22T09:59:57;120.78;;;76.95;;
59294;SDS011;45067;44.654;20.200;2022-12-22T10:02:33;124.55;;;74.95;;
59294;SDS011;45067;44.654;20.200;2022-12-22T10:05:10;115.22;;;72.55;;
59294;SDS011;45067;44.654;20.200;2022-12-22T10:07:40;120.75;;;74.22;;
59294;SDS011;45067;44.654;20.200;2022-12-22T10:10:17;112.10;;;71.03;;
59294;SDS011;45067;44.654;20.200;2022-12-22T10:12:44;116.72;;;70.18;;
59294;SDS011;45067;44.654;20.200;2022-12-22T10:15:10;113.15;;;69.63;;
59294;SDS011;45067;44.654;20.200;2022-12-22T10:17:37;115.38;;;68.20;;
59294;SDS011;45067;44.654;20.200;2022-12-22T10:20:08;106.90;;;67.90;;
59294;SDS011;45067;44.654;20.200;2022-12-22T10:22:36;108.82;;;67.40;;
59294;SDS011;45067;44.654;20.200;2022-12-22T10:25:05;114.78;;;69.32;;
59294;SDS011;45067;44.654;20.200;2022-12-22T10:27:32;110.70;;;69.40;;
59294;SDS011;45067;44.654;20.200;2022-12-22T10:32:59;109.40;;;67.57;;
59294;SDS011;45067;44.654;20.200;2022-12-22T10:35:34;97.40;;;59.80;;
59294;SDS011;45067;44.654;20.200;2022-12-22T10:38:10;96.57;;;58.05;;
59294;SDS011;45067;44.654;20.200;2022-12-22T10:40:40;91.90;;;56.63;;
59294;SDS011;45067;44.654;20.200;2022-12-22T10:43:07;87.85;;;52.15;;
59294;SDS011;45067;44.654;20.200;2022-12-22T10:45:33;76.53;;;46.05;;
59294;SDS011;45067;44.654;20.200;2022-12-22T10:47:59;76.35;;;46.28;;
59294;SDS011;45067;44.654;20.200;2022-12-22T10:50:25;71.75;;;43.80;;
59294;SDS011;45067;44.654;20.200;2022-12-22T10:52:52;68.20;;;43.60;;
59294;SDS011;45067;44.654;20.200;2022-12-22T10:55:23;65.25;;;40.72;;
59294;SDS011;45067;44.654;20.200;2022-12-22T10:58:05;69.28;;;41.92;;
59294;SDS011;45067;44.654;20.200;2022-12-22T11:00:34;68.97;;;43.38;;
59294;SDS011;45067;44.654;20.200;2022-12-22T11:03:02;72.32;;;41.78;;
59294;SDS011;45067;44.654;20.200;2022-12-22T11:05:28;64.15;;;41.17;;
59294;SDS011;45067;44.654;20.200;2022-12-22T11:07:55;68.47;;;41.35;;
59294;SDS011;45067;44.654;20.200;2022-12-22T11:16:07;61.05;;;35.90;;
59294;SDS011;45067;44.654;20.200;2022-12-22T11:24:34;66.05;;;39.40;;
59294;SDS011;45067;44.654;20.200;2022-12-22T11:26:35;74.22;;;40.55;;
59294;SDS011;45067;44.654;20.200;2022-12-22T11:29:19;71.65;;;41.08;;
59294;SDS011;45067;44.654;20.200;2022-12-22T11:42:18;58.00;;;35.58;;
59294;SDS011;45067;44.654;20.200;2022-12-22T11:50:14;57.33;;;35.42;;
59294;SDS011;45067;44.654;20.200;2022-12-22T11:55:38;70.07;;;40.53;;
59294;SDS011;45067;44.654;20.200;2022-12-22T12:01:39;62.75;;;38.05;;
59294;SDS011;45067;44.654;20.200;2022-12-22T12:09:03;63.10;;;37.08;;
59294;SDS011;45067;44.654;20.200;2022-12-22T12:16:41;55.05;;;35.75;;
59294;SDS011;45067;44.654;20.200;2022-12-22T12:21:42;62.55;;;39.28;;
59294;SDS011;45067;44.654;20.200;2022-12-22T12:26:51;65.53;;;38.90;;
59294;SDS011;45067;44.654;20.200;2022-12-22T12:29:21;69.97;;;41.88;;
59294;SDS011;45067;44.654;20.200;2022-12-22T12:34:15;76.05;;;43.15;;
59294;SDS011;45067;44.654;20.200;2022-12-22T12:36:46;71.03;;;42.35;;
59294;SDS011;45067;44.654;20.200;2022-12-22T12:39:24;70.40;;;41.35;;
59294;SDS011;45067;44.654;20.200;2022-12-22T12:42:02;71.18;;;43.30;;
59294;SDS011;45067;44.654;20.200;2022-12-22T12:44:33;70.35;;;43.15;;
59294;SDS011;45067;44.654;20.200;2022-12-22T12:47:04;74.05;;;44.75;;
59294;SDS011;45067;44.654;20.200;2022-12-22T12:52:03;73.75;;;44.53;;
59294;SDS011;45067;44.654;20.200;2022-12-22T12:54:35;78.93;;;45.60;;
59294;SDS011;45067;44.654;20.200;2022-12-22T12:59:46;77.95;;;47.08;;
59294;SDS011;45067;44.654;20.200;2022-12-22T13:05:26;72.68;;;45.30;;
59294;SDS011;45067;44.654;20.200;2022-12-22T13:10:32;72.15;;;44.85;;
59294;SDS011;45067;44.654;20.200;2022-12-22T13:12:59;74.80;;;45.10;;
59294;SDS011;45067;44.654;20.200;2022-12-22T13:17:51;79.57;;;46.50;;
59294;SDS011;45067;44.654;20.200;2022-12-22T13:20:18;77.28;;;46.47;;
59294;SDS011;45067;44.654;20.200;2022-12-22T13:22:46;73.85;;;44.60;;
59294;SDS011;45067;44.654;20.200;2022-12-22T13:25:16;76.50;;;45.27;;
59294;SDS011;45067;44.654;20.200;2022-12-22T13:27:42;78.30;;;42.95;;
59294;SDS011;45067;44.654;20.200;2022-12-22T13:30:19;74.47;;;45.55;;
59294;SDS011;45067;44.654;20.200;2022-12-22T13:32:46;78.95;;;44.38;;
59294;SDS011;45067;44.654;20.200;2022-12-22T13:35:20;79.32;;;45.38;;
59294;SDS011;45067;44.654;20.200;2022-12-22T13:37:47;80.70;;;46.53;;
59294;SDS011;45067;44.654;20.200;2022-12-22T13:40:21;86.95;;;46.13;;
59294;SDS011;45067;44.654;20.200;2022-12-22T13:42:49;98.53;;;52.20;;
59294;SDS011;45067;44.654;20.200;2022-12-22T13:45:22;93.63;;;53.38;;
59294;SDS011;45067;44.654;20.200;2022-12-22T13:47:50;101.75;;;59.60;;
59294;SDS011;45067;44.654;20.200;2022-12-22T13:50:24;119.90;;;68.50;;
59294;SDS011;45067;44.654;20.200;2022-12-22T13:52:51;116.80;;;66.70;;
59294;SDS011;45067;44.654;20.200;2022-12-22T13:55:19;89.03;;;52.47;;
59294;SDS011;45067;44.654;20.200;2022-12-22T13:57:48;97.78;;;53.70;;
59294;SDS011;45067;44.654;20.200;2022-12-22T14:00:20;89.05;;;52.20;;
59294;SDS011;45067;44.654;20.200;2022-12-22T14:02:46;93.20;;;53.90;;
59294;SDS011;45067;44.654;20.200;2022-12-22T14:05:12;91.70;;;51.80;;
59294;SDS011;45067;44.654;20.200;2022-12-22T14:07:39;69.60;;;43.15;;
59294;SDS011;45067;44.654;20.200;2022-12-22T14:10:06;75.65;;;45.72;;
59294;SDS011;45067;44.654;20.200;2022-12-22T14:12:50;80.60;;;45.47;;
59294;SDS011;45067;44.654;20.200;2022-12-22T14:15:17;78.50;;;45.38;;
59294;SDS011;45067;44.654;20.200;2022-12-22T14:17:43;71.43;;;43.38;;
59294;SDS011;45067;44.654;20.200;2022-12-22T14:22:53;68.60;;;37.75;;
59294;SDS011;45067;44.654;20.200;2022-12-22T14:25:27;58.35;;;35.97;;
59294;SDS011;45067;44.654;20.200;2022-12-22T14:27:54;63.72;;;36.20;;
59294;SDS011;45067;44.654;20.200;2022-12-22T14:30:55;68.05;;;42.22;;
59294;SDS011;45067;44.654;20.200;2022-12-22T14:35:43;69.95;;;39.25;;
59294;SDS011;45067;44.654;20.200;2022-12-22T14:38:17;76.05;;;42.30;;
59294;SDS011;45067;44.654;20.200;2022-12-22T14:40:44;70.05;;;44.55;;
59294;SDS011;45067;44.654;20.200;2022-12-22T14:45:42;76.10;;;45.50;;
59294;SDS011;45067;44.654;20.200;2022-12-22T14:48:14;79.70;;;48.28;;
59294;SDS011;45067;44.654;20.200;2022-12-22T14:50:46;79.05;;;49.33;;
59294;SDS011;45067;44.654;20.200;2022-12-22T14:53:13;88.35;;;53.67;;
59294;SDS011;45067;44.654;20.200;2022-12-22T14:55:41;93.28;;;54.70;;
59294;SDS011;45067;44.654;20.200;2022-12-22T15:00:34;95.10;;;56.90;;
59294;SDS011;45067;44.654;20.200;2022-12-22T15:03:25;92.28;;;57.47;;
59294;SDS011;45067;44.654;20.200;2022-12-22T15:05:47;99.50;;;57.75;;
59294;SDS011;45067;44.654;20.200;2022-12-22T15:10:58;90.32;;;55.78;;
59294;SDS011;45067;44.654;20.200;2022-12-22T15:13:24;102.32;;;55.70;;
59294;SDS011;45067;44.654;20.200;2022-12-22T15:15:50;89.25;;;55.35;;
59294;SDS011;45067;44.654;20.200;2022-12-22T15:18:17;83.47;;;55.00;;
59294;SDS011;45067;44.654;20.200;2022-12-22T15:20:45;90.53;;;53.90;;
59294;SDS011;45067;44.654;20.200;2022-12-22T15:23:12;88.82;;;53.08;;
59294;SDS011;45067;44.654;20.200;2022-12-22T15:25:40;88.80;;;54.78;;
59294;SDS011;45067;44.654;20.200;2022-12-22T15:28:06;89.05;;;55.75;;
59294;SDS011;45067;44.654;20.200;2022-12-22T15:30:32;89.03;;;56.80;;
59294;SDS011;45067;44.654;20.200;2022-12-22T15:32:59;93.97;;;58.45;;
59294;SDS011;45067;44.654;20.200;2022-12-22T15:35:29;89.95;;;54.35;;
59294;SDS011;45067;44.654;20.200;2022-12-22T15:37:56;94.38;;;60.08;;
59294;SDS011;45067;44.654;20.200;2022-12-22T15:40:22;92.43;;;61.40;;
59294;SDS011;45067;44.654;20.200;2022-12-22T15:42:49;101.65;;;65.63;;
59294;SDS011;45067;44.654;20.200;2022-12-22T15:45:15;109.07;;;69.18;;
59294;SDS011;45067;44.654;20.200;2022-12-22T15:47:42;119.82;;;73.80;;
59294;SDS011;45067;44.654;20.200;2022-12-22T15:50:16;124.55;;;77.97;;
59294;SDS011;45067;44.654;20.200;2022-12-22T15:52:50;119.68;;;74.65;;
59294;SDS011;45067;44.654;20.200;2022-12-22T15:55:17;123.15;;;75.70;;
59294;SDS011;45067;44.654;20.200;2022-12-22T15:57:44;111.65;;;73.55;;
59294;SDS011;45067;44.654;20.200;2022-12-22T16:00:11;116.95;;;75.90;;
59294;SDS011;45067;44.654;20.200;2022-12-22T16:02:37;113.45;;;72.90;;
59294;SDS011;45067;44.654;20.200;2022-12-22T16:05:03;117.93;;;77.07;;
59294;SDS011;45067;44.654;20.200;2022-12-22T16:07:29;128.43;;;77.95;;
59294;SDS011;45067;44.654;20.200;2022-12-22T16:09:56;119.50;;;76.60;;
59294;SDS011;45067;44.654;20.200;2022-12-22T16:12:22;115.78;;;74.18;;
59294;SDS011;45067;44.654;20.200;2022-12-22T16:14:50;113.35;;;73.55;;
59294;SDS011;45067;44.654;20.200;2022-12-22T16:17:23;115.97;;;72.93;;
59294;SDS011;45067;44.654;20.200;2022-12-22T16:19:50;112.03;;;70.32;;
59294;SDS011;45067;44.654;20.200;2022-12-22T16:22:17;110.05;;;70.05;;
59294;SDS011;45067;44.654;20.200;2022-12-22T16:24:44;116.25;;;73.45;;
59294;SDS011;45067;44.654;20.200;2022-12-22T16:27:11;111.93;;;71.85;;
59294;SDS011;45067;44.654;20.200;2022-12-22T16:29:39;120.97;;;77.95;;
59294;SDS011;45067;44.654;20.200;2022-12-22T16:34:39;127.28;;;79.57;;
59294;SDS011;45067;44.654;20.200;2022-12-22T16:37:05;133.68;;;85.60;;
59294;SDS011;45067;44.654;20.200;2022-12-22T16:39:31;140.70;;;88.07;;
59294;SDS011;45067;44.654;20.200;2022-12-22T16:41:58;137.25;;;86.72;;
59294;SDS011;45067;44.654;20.200;2022-12-22T16:44:24;143.88;;;85.95;;
59294;SDS011;45067;44.654;20.200;2022-12-22T16:46:50;134.32;;;85.57;;
59294;SDS011;45067;44.654;20.200;2022-12-22T16:49:17;124.53;;;82.20;;
59294;SDS011;45067;44.654;20.200;2022-12-22T16:51:48;128.80;;;82.20;;
59294;SDS011;45067;44.654;20.200;2022-12-22T16:54:15;124.03;;;83.43;;